Terminal Aerodrome Forecast
Issued by NWS Buffalo, NY

Home | Current Version | Previous Version | Text Only | Print | Product List | Glossary On
Versions: 1 2 3 4 5 6 7 8 9 10 11 12 13 14 15 16 17 18 19 20 21 22 23 24 25 26 27 28 29 30
000
FTUS41 KBUF 241120
TAFBUF
TAF
KBUF 241120Z 2412/2512 31005KT P6SM BKN025
     FM241600 02006KT P6SM SCT025 BKN100
     FM242300 07006KT P6SM BKN100
     FM250500 10012KT 6SM -RA OVC040
     FM250700 12014G22KT 2SM +RA OVC012=

USA.gov is the U.S. government's official web portal to all federal, state and local government web resources and services.